Denis Sullivan — WDA2917 — position and weather

sailwx.info

Track history (hours):
 
Tides and Currents Weather Stations Pressure Air Temp Water Temp Dewpoint Dewpoint Depression Visibility Wind Speed Wind Dir Waves Ship Positions

Denis Sullivan (United States)

From her homeport of Discovery World in Milwaukee, the schooner offers educational day sails and private charters for people of all ages from May to September.

Ship's website: http://www.discoveryworld.org/denisSullivan.php

Owner: Discovery World Ltd., MILWAUKEE, WI. More information available from US FCC via Universal Licensing System and Coast Guard Vessel Documentation Center.

Last reported at 2019-Aug-20 18:22 UTC. Time now 2019-Aug-22 10:04 UTC.
Position N 42°28' W 082°46'.

Length 43 m; draft 2.6 m.

Type: Sailing vessel. MMSI: 338327000.

Date/timePositionNaut miles runAvg speedWind from/ knotsBaromVisibWave heightAir tempDewpointWater temp
2019-Aug-20 18:22N 42°28' W 082°46'183 4.9
2019-Aug-19 04:44N 45°29' W 083°22'2 6.5
2019-Aug-19 04:28N 45°31' W 083°22'  
2019-Aug-14 19:52N 46°51' W 091°39'2 6.5
2019-Aug-14 19:31N 46°50' W 091°42'4 6.5
2019-Aug-14 18:58N 46°50' W 091°48'3 6.5
2019-Aug-14 18:30N 46°49' W 091°52'3 6.5
2019-Aug-14 18:00N 46°48' W 091°56'3 6.8
2019-Aug-14 17:31N 46°48' W 092°01'3 6.3
2019-Aug-14 17:01N 46°47' W 092°06'0 0.4
2019-Aug-14 16:30N 46°47' W 092°06'0 0.0
2019-Aug-14 16:00N 46°47' W 092°06'0 0.0
2019-Aug-14 15:30N 46°47' W 092°06'0 0.0
2019-Aug-14 14:51N 46°47' W 092°06'0 0.0
2019-Aug-14 14:21N 46°47' W 092°06'0 0.0
2019-Aug-14 13:51N 46°47' W 092°06'0 0.0
2019-Aug-14 13:21N 46°47' W 092°06'0 0.0
2019-Aug-14 12:51N 46°47' W 092°06'0 0.0
2019-Aug-14 12:24N 46°47' W 092°06'0 0.0
2019-Aug-14 11:54N 46°47' W 092°06'0 0.0
2019-Aug-14 11:24N 46°47' W 092°06'0 0.0
2019-Aug-14 10:54N 46°47' W 092°06'0 0.0
2019-Aug-14 10:24N 46°47' W 092°06'0 0.0
2019-Aug-14 09:54N 46°47' W 092°06'0 0.0
2019-Aug-14 09:24N 46°47' W 092°06'0 0.0
2019-Aug-14 08:54N 46°47' W 092°06'0 0.0
2019-Aug-14 08:24N 46°47' W 092°06'0 0.0
2019-Aug-14 07:57N 46°47' W 092°06'0 0.0
2019-Aug-14 07:27N 46°47' W 092°06'0 0.0
2019-Aug-14 06:57N 46°47' W 092°06'0 0.0
2019-Aug-14 06:27N 46°47' W 092°06'0 0.0
2019-Aug-14 05:57N 46°47' W 092°06'0 0.0
2019-Aug-14 05:27N 46°47' W 092°06'0 0.0
2019-Aug-14 04:57N 46°47' W 092°06'0 0.0
2019-Aug-14 04:27N 46°47' W 092°06'0 0.0
2019-Aug-14 03:57N 46°47' W 092°06'0 0.0
2019-Aug-14 03:27N 46°47' W 092°06'0 0.0
2019-Aug-14 03:00N 46°47' W 092°06'0 0.0
2019-Aug-14 02:27N 46°47' W 092°06'0 0.0
2019-Aug-14 02:00N 46°47' W 092°06'0 0.0
2019-Aug-14 01:30N 46°47' W 092°06'0 0.0
2019-Aug-14 01:00N 46°47' W 092°06'0 0.0
2019-Aug-14 00:30N 46°47' W 092°06'0 0.0
2019-Aug-14 00:00N 46°47' W 092°06'0 0.0
2019-Aug-13 23:30N 46°47' W 092°06'0 0.0
2019-Aug-13 23:00N 46°47' W 092°06'0 0.0
2019-Aug-13 22:30N 46°47' W 092°06'0 0.0
2019-Aug-13 21:57N 46°47' W 092°06'0 0.0
2019-Aug-13 21:30N 46°47' W 092°06'0 0.0
2019-Aug-13 21:00N 46°47' W 092°06'0 0.0
2019-Aug-13 20:30N 46°47' W 092°06'0 0.0
2019-Aug-13 20:00N 46°47' W 092°06'0 0.0
2019-Aug-13 19:18N 46°47' W 092°06'0 0.0
2019-Aug-13 19:00N 46°47' W 092°06'0 0.0
2019-Aug-13 18:30N 46°47' W 092°06'0 0.0
2019-Aug-13 18:00N 46°47' W 092°06'0 0.0
2019-Aug-13 17:30N 46°47' W 092°06'0 0.0
2019-Aug-13 17:00N 46°47' W 092°06'0 0.0
2019-Aug-13 16:30N 46°47' W 092°06'0 0.0
2019-Aug-13 15:59N 46°47' W 092°06'0 0.0
2019-Aug-13 15:29N 46°47' W 092°06'0 0.0
2019-Aug-13 14:59N 46°47' W 092°06'0 0.0
2019-Aug-13 14:20N 46°47' W 092°06'0 0.0
2019-Aug-13 13:47N 46°47' W 092°06'0 0.0
2019-Aug-13 13:17N 46°47' W 092°06'0 0.0
2019-Aug-13 12:50N 46°47' W 092°06'0 0.0
2019-Aug-13 12:23N 46°47' W 092°06'0 0.0
2019-Aug-13 11:53N 46°47' W 092°06'0 0.0
2019-Aug-13 11:08N 46°47' W 092°06'0 0.0
2019-Aug-13 10:53N 46°47' W 092°06'0 0.0
2019-Aug-13 10:23N 46°47' W 092°06'0 0.0
2019-Aug-13 09:53N 46°47' W 092°06'0 0.0
2019-Aug-13 09:23N 46°47' W 092°06'0 0.0
2019-Aug-13 08:53N 46°47' W 092°06'0 0.0
2019-Aug-13 08:23N 46°47' W 092°06'0 0.0
2019-Aug-13 07:38N 46°47' W 092°06'0 0.0
2019-Aug-13 07:26N 46°47' W 092°06'0 0.0
2019-Aug-13 06:56N 46°47' W 092°06'0 0.0
2019-Aug-13 06:26N 46°47' W 092°06'0 0.0
2019-Aug-13 05:56N 46°47' W 092°06'0 0.0
2019-Aug-13 05:26N 46°47' W 092°06'0 0.0
2019-Aug-13 04:56N 46°47' W 092°06'0 0.0
2019-Aug-13 04:26N 46°47' W 092°06'0 0.0
2019-Aug-13 03:56N 46°47' W 092°06'0 0.0
2019-Aug-13 03:26N 46°47' W 092°06'0 0.0
2019-Aug-13 02:56N 46°47' W 092°06'0 0.0
2019-Aug-13 02:29N 46°47' W 092°06'0 0.0
2019-Aug-13 01:29N 46°47' W 092°06'0 0.0
2019-Aug-13 00:59N 46°47' W 092°06'0 0.0
2019-Aug-13 00:29N 46°47' W 092°06'0 0.0
2019-Aug-12 23:59N 46°47' W 092°06'0 0.0
2019-Aug-12 23:29N 46°47' W 092°06'0 0.0
2019-Aug-12 22:59N 46°47' W 092°06'0 0.0
2019-Aug-12 22:26N 46°47' W 092°06'0 0.0
2019-Aug-12 21:59N 46°47' W 092°06'0 0.0
2019-Aug-12 21:29N 46°47' W 092°06'0 0.0
2019-Aug-12 20:59N 46°47' W 092°06'0 0.0
2019-Aug-12 20:29N 46°47' W 092°06'0 0.0
2019-Aug-12 19:59N 46°47' W 092°06'0 0.0
2019-Aug-12 19:29N 46°47' W 092°06'0 0.0
2019-Aug-12 18:59N 46°47' W 092°06'0 0.0
2019-Aug-12 18:29N 46°47' W 092°06'0 0.0
2019-Aug-12 17:59N 46°47' W 092°06'0 0.0
2019-Aug-12 17:29N 46°47' W 092°06'0 0.0
2019-Aug-12 16:59N 46°47' W 092°06'0 0.0
2019-Aug-12 16:29N 46°47' W 092°06'0 0.0
2019-Aug-12 15:59N 46°47' W 092°06'0 0.0
2019-Aug-12 15:20N 46°47' W 092°06'0 0.0
2019-Aug-12 14:59N 46°47' W 092°06'0 0.0
2019-Aug-12 14:20N 46°47' W 092°06'0 0.0
2019-Aug-12 13:50N 46°47' W 092°06'0 0.0
2019-Aug-12 13:17N 46°47' W 092°06'0 0.0
2019-Aug-12 12:50N 46°47' W 092°06'0 0.0
2019-Aug-12 12:20N 46°47' W 092°06'0 0.0
2019-Aug-12 11:53N 46°47' W 092°06'0 0.0
2019-Aug-12 11:23N 46°47' W 092°06'0 0.0
2019-Aug-12 10:53N 46°47' W 092°06'0 0.0
2019-Aug-12 10:23N 46°47' W 092°06'0 0.0
2019-Aug-12 09:50N 46°47' W 092°06'0 0.0
2019-Aug-12 09:23N 46°47' W 092°06'0 0.0
2019-Aug-12 08:50N 46°47' W 092°06'0 0.0
2019-Aug-12 08:23N 46°47' W 092°06'0 0.0
2019-Aug-12 07:38N 46°47' W 092°06'0 0.0
2019-Aug-12 07:23N 46°47' W 092°06'0 0.0
2019-Aug-12 06:56N 46°47' W 092°06'0 0.0
2019-Aug-12 06:26N 46°47' W 092°06'0 0.0
2019-Aug-12 05:56N 46°47' W 092°06'0 0.0
2019-Aug-12 05:23N 46°47' W 092°06'0 0.0
2019-Aug-12 04:56N 46°47' W 092°06'0 0.0
2019-Aug-12 04:26N 46°47' W 092°06'0 0.0
2019-Aug-12 03:56N 46°47' W 092°06'0 0.0
2019-Aug-12 03:25N 46°47' W 092°06'0 0.0
2019-Aug-12 02:52N 46°47' W 092°06'0 0.0
2019-Aug-12 02:28N 46°47' W 092°06'0 0.0
2019-Aug-12 01:58N 46°47' W 092°06'0 0.0
2019-Aug-12 01:28N 46°47' W 092°06'0 0.0
2019-Aug-12 00:58N 46°47' W 092°06'0 0.0
2019-Aug-12 00:28N 46°47' W 092°06'0 0.0
2019-Aug-11 23:58N 46°47' W 092°06'0 0.0
2019-Aug-11 23:28N 46°47' W 092°06'0 0.0
2019-Aug-11 22:58N 46°47' W 092°06'0 0.0
2019-Aug-11 22:25N 46°47' W 092°06'0 0.0
2019-Aug-11 21:58N 46°47' W 092°06'0 0.0
2019-Aug-11 21:25N 46°47' W 092°06'0 0.0
2019-Aug-11 20:55N 46°47' W 092°06'0 0.0
2019-Aug-11 20:28N 46°47' W 092°06'0 0.0
2019-Aug-11 19:58N 46°47' W 092°06'0 0.0
2019-Aug-11 19:28N 46°47' W 092°06'0 0.0
2019-Aug-11 18:58N 46°47' W 092°06'0 0.0
2019-Aug-11 18:28N 46°47' W 092°06'0 0.0
2019-Aug-11 17:58N 46°47' W 092°06'0 0.0
2019-Aug-11 17:28N 46°47' W 092°06'0 0.0
2019-Aug-11 16:58N 46°47' W 092°06'0 0.0
2019-Aug-11 16:28N 46°47' W 092°06'0 0.4
2019-Aug-11 16:00N 46°47' W 092°06'0 0.5
2019-Aug-11 15:30N 46°47' W 092°06'1 2.1
2019-Aug-11 15:00N 46°47' W 092°04'1 2.0
2019-Aug-11 14:30N 46°47' W 092°03'1 1.5
2019-Aug-11 14:00N 46°47' W 092°04'1 2.0
2019-Aug-11 13:23N 46°47' W 092°06'0 0.0
2019-Aug-11 12:56N 46°47' W 092°06'0 0.0
2019-Aug-11 12:26N 46°47' W 092°06'1 2.7
2019-Aug-11 12:00N 46°46' W 092°06'3 5.8
2019-Aug-11 11:30N 46°43' W 092°03'2 4.0
2019-Aug-11 11:00N 46°43' W 092°00'1 2.2
2019-Aug-11 10:30N 46°43' W 091°59'2 4.1
2019-Aug-11 10:00N 46°44' W 091°56'3 6.4
2019-Aug-11 09:30N 46°45' W 091°52'3 6.1
2019-Aug-11 09:01N 46°46' W 091°48'3 6.0
2019-Aug-11 08:31N 46°47' W 091°44'3 5.8
2019-Aug-11 08:01N 46°49' W 091°40'  
Track history (hours):
 
Tides and Currents Weather Stations Pressure Air Temp Water Temp Dewpoint Dewpoint Depression Visibility Wind Speed Wind Dir Waves Ship Positions

Denis Sullivan (United States)

From her homeport of Discovery World in Milwaukee, the schooner offers educational day sails and private charters for people of all ages from May to September.

Ship's website: http://www.discoveryworld.org/denisSullivan.php

Owner: Discovery World Ltd., MILWAUKEE, WI. More information available from US FCC via Universal Licensing System and Coast Guard Vessel Documentation Center.

Last reported at 2019-Aug-20 18:22 UTC. Time now 2019-Aug-22 10:04 UTC.
Position N 42°28' W 082°46'.

Length 43 m; draft 2.6 m.

Type: Sailing vessel. MMSI: 338327000.

Date/timePositionNaut miles runAvg speedWind from/ knotsBaromVisibWave heightAir tempDewpointWater temp
2019-Aug-20 18:22N 42°28' W 082°46'183 4.9
2019-Aug-19 04:44N 45°29' W 083°22'2 6.5
2019-Aug-19 04:28N 45°31' W 083°22'  
2019-Aug-14 19:52N 46°51' W 091°39'2 6.5
2019-Aug-14 19:31N 46°50' W 091°42'4 6.5
2019-Aug-14 18:58N 46°50' W 091°48'3 6.5
2019-Aug-14 18:30N 46°49' W 091°52'3 6.5
2019-Aug-14 18:00N 46°48' W 091°56'3 6.8
2019-Aug-14 17:31N 46°48' W 092°01'3 6.3
2019-Aug-14 17:01N 46°47' W 092°06'0 0.4
2019-Aug-14 16:30N 46°47' W 092°06'0 0.0
2019-Aug-14 16:00N 46°47' W 092°06'0 0.0
2019-Aug-14 15:30N 46°47' W 092°06'0 0.0
2019-Aug-14 14:51N 46°47' W 092°06'0 0.0
2019-Aug-14 14:21N 46°47' W 092°06'0 0.0
2019-Aug-14 13:51N 46°47' W 092°06'0 0.0
2019-Aug-14 13:21N 46°47' W 092°06'0 0.0
2019-Aug-14 12:51N 46°47' W 092°06'0 0.0
2019-Aug-14 12:24N 46°47' W 092°06'0 0.0
2019-Aug-14 11:54N 46°47' W 092°06'0 0.0
2019-Aug-14 11:24N 46°47' W 092°06'0 0.0
2019-Aug-14 10:54N 46°47' W 092°06'0 0.0
2019-Aug-14 10:24N 46°47' W 092°06'0 0.0
2019-Aug-14 09:54N 46°47' W 092°06'0 0.0
2019-Aug-14 09:24N 46°47' W 092°06'0 0.0
2019-Aug-14 08:54N 46°47' W 092°06'0 0.0
2019-Aug-14 08:24N 46°47' W 092°06'0 0.0
2019-Aug-14 07:57N 46°47' W 092°06'0 0.0
2019-Aug-14 07:27N 46°47' W 092°06'0 0.0
2019-Aug-14 06:57N 46°47' W 092°06'0 0.0
2019-Aug-14 06:27N 46°47' W 092°06'0 0.0
2019-Aug-14 05:57N 46°47' W 092°06'0 0.0
2019-Aug-14 05:27N 46°47' W 092°06'0 0.0
2019-Aug-14 04:57N 46°47' W 092°06'0 0.0
2019-Aug-14 04:27N 46°47' W 092°06'0 0.0
2019-Aug-14 03:57N 46°47' W 092°06'0 0.0
2019-Aug-14 03:27N 46°47' W 092°06'0 0.0
2019-Aug-14 03:00N 46°47' W 092°06'0 0.0
2019-Aug-14 02:27N 46°47' W 092°06'0 0.0
2019-Aug-14 02:00N 46°47' W 092°06'0 0.0
2019-Aug-14 01:30N 46°47' W 092°06'0 0.0
2019-Aug-14 01:00N 46°47' W 092°06'0 0.0
2019-Aug-14 00:30N 46°47' W 092°06'0 0.0
2019-Aug-14 00:00N 46°47' W 092°06'0 0.0
2019-Aug-13 23:30N 46°47' W 092°06'0 0.0
2019-Aug-13 23:00N 46°47' W 092°06'0 0.0
2019-Aug-13 22:30N 46°47' W 092°06'0 0.0
2019-Aug-13 21:57N 46°47' W 092°06'0 0.0
2019-Aug-13 21:30N 46°47' W 092°06'0 0.0
2019-Aug-13 21:00N 46°47' W 092°06'0 0.0
2019-Aug-13 20:30N 46°47' W 092°06'0 0.0
2019-Aug-13 20:00N 46°47' W 092°06'0 0.0
2019-Aug-13 19:18N 46°47' W 092°06'0 0.0
2019-Aug-13 19:00N 46°47' W 092°06'0 0.0
2019-Aug-13 18:30N 46°47' W 092°06'0 0.0
2019-Aug-13 18:00N 46°47' W 092°06'0 0.0
2019-Aug-13 17:30N 46°47' W 092°06'0 0.0
2019-Aug-13 17:00N 46°47' W 092°06'0 0.0
2019-Aug-13 16:30N 46°47' W 092°06'0 0.0
2019-Aug-13 15:59N 46°47' W 092°06'0 0.0
2019-Aug-13 15:29N 46°47' W 092°06'0 0.0
2019-Aug-13 14:59N 46°47' W 092°06'0 0.0
2019-Aug-13 14:20N 46°47' W 092°06'0 0.0
2019-Aug-13 13:47N 46°47' W 092°06'0 0.0
2019-Aug-13 13:17N 46°47' W 092°06'0 0.0
2019-Aug-13 12:50N 46°47' W 092°06'0 0.0
2019-Aug-13 12:23N 46°47' W 092°06'0 0.0
2019-Aug-13 11:53N 46°47' W 092°06'0 0.0
2019-Aug-13 11:08N 46°47' W 092°06'0 0.0
2019-Aug-13 10:53N 46°47' W 092°06'0 0.0
2019-Aug-13 10:23N 46°47' W 092°06'0 0.0
2019-Aug-13 09:53N 46°47' W 092°06'0 0.0
2019-Aug-13 09:23N 46°47' W 092°06'0 0.0
2019-Aug-13 08:53N 46°47' W 092°06'0 0.0
2019-Aug-13 08:23N 46°47' W 092°06'0 0.0
2019-Aug-13 07:38N 46°47' W 092°06'0 0.0
2019-Aug-13 07:26N 46°47' W 092°06'0 0.0
2019-Aug-13 06:56N 46°47' W 092°06'0 0.0
2019-Aug-13 06:26N 46°47' W 092°06'0 0.0
2019-Aug-13 05:56N 46°47' W 092°06'0 0.0
2019-Aug-13 05:26N 46°47' W 092°06'0 0.0
2019-Aug-13 04:56N 46°47' W 092°06'0 0.0
2019-Aug-13 04:26N 46°47' W 092°06'0 0.0
2019-Aug-13 03:56N 46°47' W 092°06'0 0.0
2019-Aug-13 03:26N 46°47' W 092°06'0 0.0
2019-Aug-13 02:56N 46°47' W 092°06'0 0.0
2019-Aug-13 02:29N 46°47' W 092°06'0 0.0
2019-Aug-13 01:29N 46°47' W 092°06'0 0.0
2019-Aug-13 00:59N 46°47' W 092°06'0 0.0
2019-Aug-13 00:29N 46°47' W 092°06'0 0.0
2019-Aug-12 23:59N 46°47' W 092°06'0 0.0
2019-Aug-12 23:29N 46°47' W 092°06'0 0.0
2019-Aug-12 22:59N 46°47' W 092°06'0 0.0
2019-Aug-12 22:26N 46°47' W 092°06'0 0.0
2019-Aug-12 21:59N 46°47' W 092°06'0 0.0
2019-Aug-12 21:29N 46°47' W 092°06'0 0.0
2019-Aug-12 20:59N 46°47' W 092°06'0 0.0
2019-Aug-12 20:29N 46°47' W 092°06'0 0.0
2019-Aug-12 19:59N 46°47' W 092°06'0 0.0
2019-Aug-12 19:29N 46°47' W 092°06'0 0.0
2019-Aug-12 18:59N 46°47' W 092°06'0 0.0
2019-Aug-12 18:29N 46°47' W 092°06'0 0.0
2019-Aug-12 17:59N 46°47' W 092°06'0 0.0
2019-Aug-12 17:29N 46°47' W 092°06'0 0.0
2019-Aug-12 16:59N 46°47' W 092°06'0 0.0
2019-Aug-12 16:29N 46°47' W 092°06'0 0.0
2019-Aug-12 15:59N 46°47' W 092°06'0 0.0
2019-Aug-12 15:20N 46°47' W 092°06'0 0.0
2019-Aug-12 14:59N 46°47' W 092°06'0 0.0
2019-Aug-12 14:20N 46°47' W 092°06'0 0.0
2019-Aug-12 13:50N 46°47' W 092°06'0 0.0
2019-Aug-12 13:17N 46°47' W 092°06'0 0.0
2019-Aug-12 12:50N 46°47' W 092°06'0 0.0
2019-Aug-12 12:20N 46°47' W 092°06'0 0.0
2019-Aug-12 11:53N 46°47' W 092°06'0 0.0
2019-Aug-12 11:23N 46°47' W 092°06'0 0.0
2019-Aug-12 10:53N 46°47' W 092°06'0 0.0
2019-Aug-12 10:23N 46°47' W 092°06'0 0.0
2019-Aug-12 09:50N 46°47' W 092°06'0 0.0
2019-Aug-12 09:23N 46°47' W 092°06'0 0.0
2019-Aug-12 08:50N 46°47' W 092°06'0 0.0
2019-Aug-12 08:23N 46°47' W 092°06'0 0.0
2019-Aug-12 07:38N 46°47' W 092°06'0 0.0
2019-Aug-12 07:23N 46°47' W 092°06'0 0.0
2019-Aug-12 06:56N 46°47' W 092°06'0 0.0
2019-Aug-12 06:26N 46°47' W 092°06'0 0.0
2019-Aug-12 05:56N 46°47' W 092°06'0 0.0
2019-Aug-12 05:23N 46°47' W 092°06'0 0.0
2019-Aug-12 04:56N 46°47' W 092°06'0 0.0
2019-Aug-12 04:26N 46°47' W 092°06'0 0.0
2019-Aug-12 03:56N 46°47' W 092°06'0 0.0
2019-Aug-12 03:25N 46°47' W 092°06'0 0.0
2019-Aug-12 02:52N 46°47' W 092°06'0 0.0
2019-Aug-12 02:28N 46°47' W 092°06'0 0.0
2019-Aug-12 01:58N 46°47' W 092°06'0 0.0
2019-Aug-12 01:28N 46°47' W 092°06'0 0.0
2019-Aug-12 00:58N 46°47' W 092°06'0 0.0
2019-Aug-12 00:28N 46°47' W 092°06'0 0.0
2019-Aug-11 23:58N 46°47' W 092°06'0 0.0
2019-Aug-11 23:28N 46°47' W 092°06'0 0.0
2019-Aug-11 22:58N 46°47' W 092°06'0 0.0
2019-Aug-11 22:25N 46°47' W 092°06'0 0.0
2019-Aug-11 21:58N 46°47' W 092°06'0 0.0
2019-Aug-11 21:25N 46°47' W 092°06'0 0.0
2019-Aug-11 20:55N 46°47' W 092°06'0 0.0
2019-Aug-11 20:28N 46°47' W 092°06'0 0.0
2019-Aug-11 19:58N 46°47' W 092°06'0 0.0
2019-Aug-11 19:28N 46°47' W 092°06'0 0.0
2019-Aug-11 18:58N 46°47' W 092°06'0 0.0
2019-Aug-11 18:28N 46°47' W 092°06'0 0.0
2019-Aug-11 17:58N 46°47' W 092°06'0 0.0
2019-Aug-11 17:28N 46°47' W 092°06'0 0.0
2019-Aug-11 16:58N 46°47' W 092°06'0 0.0
2019-Aug-11 16:28N 46°47' W 092°06'0 0.4
2019-Aug-11 16:00N 46°47' W 092°06'0 0.5
2019-Aug-11 15:30N 46°47' W 092°06'1 2.1
2019-Aug-11 15:00N 46°47' W 092°04'1 2.0
2019-Aug-11 14:30N 46°47' W 092°03'1 1.5
2019-Aug-11 14:00N 46°47' W 092°04'1 2.0
2019-Aug-11 13:23N 46°47' W 092°06'0 0.0
2019-Aug-11 12:56N 46°47' W 092°06'0 0.0
2019-Aug-11 12:26N 46°47' W 092°06'1 2.7
2019-Aug-11 12:00N 46°46' W 092°06'3 5.8
2019-Aug-11 11:30N 46°43' W 092°03'2 4.0
2019-Aug-11 11:00N 46°43' W 092°00'1 2.2
2019-Aug-11 10:30N 46°43' W 091°59'2 4.1
2019-Aug-11 10:00N 46°44' W 091°56'3 6.4
2019-Aug-11 09:30N 46°45' W 091°52'3 6.1
2019-Aug-11 09:01N 46°46' W 091°48'3 6.0
2019-Aug-11 08:31N 46°47' W 091°44'3 5.8
2019-Aug-11 08:01N 46°49' W 091°40'  

Dump ship's entire track history